sensor_id;sensor_type;location;lat;lon;timestamp;pressure;altitude;pressure_sealevel;temperature;humidity
70952;BME280;69214;55.880;37.542;2023-08-06T00:01:33;99153.09;;;22.50;59.87
70952;BME280;69214;55.880;37.542;2023-08-06T00:03:59;99157.72;;;22.55;59.82
70952;BME280;69214;55.880;37.542;2023-08-06T00:06:26;99159.16;;;22.52;59.65
70952;BME280;69214;55.880;37.542;2023-08-06T00:08:51;99158.84;;;22.54;59.73
70952;BME280;69214;55.880;37.542;2023-08-06T00:11:17;99151.31;;;22.54;59.89
70952;BME280;69214;55.880;37.542;2023-08-06T00:13:43;99148.69;;;22.49;59.75
70952;BME280;69214;55.880;37.542;2023-08-06T00:16:13;99150.00;;;22.52;57.46
70952;BME280;69214;55.880;37.542;2023-08-06T00:18:39;99153.91;;;22.51;59.48
70952;BME280;69214;55.880;37.542;2023-08-06T00:21:05;99117.81;;;22.28;59.90
70952;BME280;69214;55.880;37.542;2023-08-06T00:23:32;99142.44;;;22.44;59.62
70952;BME280;69214;55.880;37.542;2023-08-06T00:25:58;99133.03;;;22.31;60.13
70952;BME280;69214;55.880;37.542;2023-08-06T00:28:23;99152.59;;;22.48;60.04
70952;BME280;69214;55.880;37.542;2023-08-06T00:30:55;99160.94;;;22.48;57.29
70952;BME280;69214;55.880;37.542;2023-08-06T00:33:22;99164.03;;;22.47;59.96
70952;BME280;69214;55.880;37.542;2023-08-06T00:35:48;99149.56;;;22.36;60.19
70952;BME280;69214;55.880;37.542;2023-08-06T00:38:14;99153.50;;;22.35;60.33
70952;BME280;69214;55.880;37.542;2023-08-06T00:40:40;99165.94;;;22.38;60.44
70952;BME280;69214;55.880;37.542;2023-08-06T00:43:06;99161.84;;;22.35;60.42
70952;BME280;69214;55.880;37.542;2023-08-06T00:45:35;99166.38;;;22.31;58.89
70952;BME280;69214;55.880;37.542;2023-08-06T00:48:07;99171.13;;;22.30;58.21
70952;BME280;69214;55.880;37.542;2023-08-06T00:50:33;99166.97;;;22.19;61.07
70952;BME280;69214;55.880;37.542;2023-08-06T00:52:59;99167.28;;;22.18;61.15
70952;BME280;69214;55.880;37.542;2023-08-06T00:55:26;99165.63;;;22.17;61.11
70952;BME280;69214;55.880;37.542;2023-08-06T00:57:52;99173.47;;;22.15;61.64
70952;BME280;69214;55.880;37.542;2023-08-06T01:00:22;99159.81;;;22.05;61.37
70952;BME280;69214;55.880;37.542;2023-08-06T01:02:49;99160.31;;;22.07;61.93
70952;BME280;69214;55.880;37.542;2023-08-06T01:05:15;99173.06;;;22.08;61.66
70952;BME280;69214;55.880;37.542;2023-08-06T01:13:08;99173.41;;;22.06;61.77
70952;BME280;69214;55.880;37.542;2023-08-06T01:15:46;99170.94;;;22.05;58.30
70952;BME280;69214;55.880;37.542;2023-08-06T01:18:13;99165.97;;;22.02;61.71
70952;BME280;69214;55.880;37.542;2023-08-06T01:20:40;99165.47;;;21.99;61.80
70952;BME280;69214;55.880;37.542;2023-08-06T01:23:06;99160.03;;;21.94;62.02
70952;BME280;69214;55.880;37.542;2023-08-06T01:26:44;99167.22;;;21.95;57.83
70952;BME280;69214;55.880;37.542;2023-08-06T01:29:05;99166.53;;;21.90;59.55
70952;BME280;69214;55.880;37.542;2023-08-06T01:31:36;99170.56;;;21.84;60.26
70952;BME280;69214;55.880;37.542;2023-08-06T01:34:06;99173.97;;;21.81;60.83
70952;BME280;69214;55.880;37.542;2023-08-06T01:36:33;99156.19;;;21.68;62.44
70952;BME280;69214;55.880;37.542;2023-08-06T01:38:59;99175.41;;;21.78;62.55
70952;BME280;69214;55.880;37.542;2023-08-06T01:41:26;99179.81;;;21.79;62.69
70952;BME280;69214;55.880;37.542;2023-08-06T01:43:51;99188.78;;;21.76;62.41
70952;BME280;69214;55.880;37.542;2023-08-06T01:46:17;99174.38;;;21.74;62.82
70952;BME280;69214;55.880;37.542;2023-08-06T01:48:43;99183.75;;;21.78;62.63
70952;BME280;69214;55.880;37.542;2023-08-06T01:51:09;99175.22;;;21.75;62.62
70952;BME280;69214;55.880;37.542;2023-08-06T01:53:35;99163.41;;;21.69;62.69
70952;BME280;69214;55.880;37.542;2023-08-06T01:56:01;99180.34;;;21.81;62.58
70952;BME280;69214;55.880;37.542;2023-08-06T01:58:27;99182.50;;;21.84;62.63
70952;BME280;69214;55.880;37.542;2023-08-06T02:00:53;99191.34;;;21.86;62.92
70952;BME280;69214;55.880;37.542;2023-08-06T02:03:19;99198.53;;;21.87;62.71
70952;BME280;69214;55.880;37.542;2023-08-06T02:05:48;99181.97;;;21.82;62.63
70952;BME280;69214;55.880;37.542;2023-08-06T02:08:14;99191.53;;;21.90;62.15
70952;BME280;69214;55.880;37.542;2023-08-06T02:10:40;99201.91;;;21.98;62.39
70952;BME280;69214;55.880;37.542;2023-08-06T02:13:07;99202.94;;;22.02;62.36
70952;BME280;69214;55.880;37.542;2023-08-06T02:15:33;99189.88;;;22.03;62.21
70952;BME280;69214;55.880;37.542;2023-08-06T02:18:01;99191.41;;;22.09;61.38
70952;BME280;69214;55.880;37.542;2023-08-06T02:20:59;99194.88;;;22.14;58.99
70952;BME280;69214;55.880;37.542;2023-08-06T02:23:26;99200.13;;;22.16;62.16
70952;BME280;69214;55.880;37.542;2023-08-06T02:26:02;99194.25;;;22.17;58.69
70952;BME280;69214;55.880;37.542;2023-08-06T02:28:29;99188.38;;;22.19;61.42
70952;BME280;69214;55.880;37.542;2023-08-06T02:30:55;99196.28;;;22.25;62.04
70952;BME280;69214;55.880;37.542;2023-08-06T02:33:21;99188.25;;;22.24;61.92
70952;BME280;69214;55.880;37.542;2023-08-06T02:35:47;99200.56;;;22.32;61.99
70952;BME280;69214;55.880;37.542;2023-08-06T02:38:14;99174.66;;;22.22;61.94
70952;BME280;69214;55.880;37.542;2023-08-06T02:40:45;99195.72;;;22.37;59.70
70952;BME280;69214;55.880;37.542;2023-08-06T02:43:11;99193.94;;;22.41;61.12
70952;BME280;69214;55.880;37.542;2023-08-06T02:45:37;99188.56;;;22.45;61.15
70952;BME280;69214;55.880;37.542;2023-08-06T02:48:03;99204.34;;;22.58;61.28
70952;BME280;69214;55.880;37.542;2023-08-06T02:50:29;99197.84;;;22.62;60.96
70952;BME280;69214;55.880;37.542;2023-08-06T02:52:55;99196.06;;;22.67;61.20
70952;BME280;69214;55.880;37.542;2023-08-06T02:55:21;99201.19;;;22.73;60.97
70952;BME280;69214;55.880;37.542;2023-08-06T02:57:48;99197.16;;;22.79;60.72
70952;BME280;69214;55.880;37.542;2023-08-06T03:00:14;99199.97;;;22.88;60.66
70952;BME280;69214;55.880;37.542;2023-08-06T03:02:41;99201.50;;;22.94;60.68
70952;BME280;69214;55.880;37.542;2023-08-06T03:05:33;99207.59;;;23.05;60.13
70952;BME280;69214;55.880;37.542;2023-08-06T03:07:58;99201.56;;;23.11;60.11
70952;BME280;69214;55.880;37.542;2023-08-06T03:10:27;99200.13;;;23.22;59.80
70952;BME280;69214;55.880;37.542;2023-08-06T03:12:56;99196.25;;;23.32;59.80
70952;BME280;69214;55.880;37.542;2023-08-06T03:15:22;99201.84;;;23.41;59.04
70952;BME280;69214;55.880;37.542;2023-08-06T03:17:49;99204.66;;;23.49;59.15
70952;BME280;69214;55.880;37.542;2023-08-06T03:20:19;99198.81;;;23.60;59.00
70952;BME280;69214;55.880;37.542;2023-08-06T03:22:45;99197.69;;;23.69;58.79
70952;BME280;69214;55.880;37.542;2023-08-06T03:25:10;99194.91;;;23.78;58.33
70952;BME280;69214;55.880;37.542;2023-08-06T03:27:37;99203.31;;;24.04;58.05
70952;BME280;69214;55.880;37.542;2023-08-06T03:30:03;99200.78;;;24.97;56.01
70952;BME280;69214;55.880;37.542;2023-08-06T03:32:32;99193.13;;;26.78;51.43
70952;BME280;69214;55.880;37.542;2023-08-06T03:34:58;99193.47;;;28.91;46.81
70952;BME280;69214;55.880;37.542;2023-08-06T03:37:30;99193.44;;;30.98;42.68
70952;BME280;69214;55.880;37.542;2023-08-06T03:39:56;99200.53;;;32.73;39.02
70952;BME280;69214;55.880;37.542;2023-08-06T03:42:22;99197.63;;;33.91;36.60
70952;BME280;69214;55.880;37.542;2023-08-06T03:44:48;99196.03;;;34.73;35.83
70952;BME280;69214;55.880;37.542;2023-08-06T03:47:14;99197.81;;;35.60;34.20
70952;BME280;69214;55.880;37.542;2023-08-06T03:49:40;99199.25;;;36.46;33.00
70952;BME280;69214;55.880;37.542;2023-08-06T03:52:07;99203.25;;;37.36;31.66
70952;BME280;69214;55.880;37.542;2023-08-06T03:54:33;99200.09;;;38.13;30.81
70952;BME280;69214;55.880;37.542;2023-08-06T03:56:59;99200.97;;;38.78;29.81
70952;BME280;69214;55.880;37.542;2023-08-06T03:59:25;99195.06;;;39.46;28.54
70952;BME280;69214;55.880;37.542;2023-08-06T04:01:50;99204.59;;;40.09;27.68
70952;BME280;69214;55.880;37.542;2023-08-06T04:04:16;99198.41;;;40.34;27.24
70952;BME280;69214;55.880;37.542;2023-08-06T04:06:42;99196.69;;;40.96;27.36
70952;BME280;69214;55.880;37.542;2023-08-06T04:09:08;99212.69;;;41.62;26.12
70952;BME280;69214;55.880;37.542;2023-08-06T04:11:34;99201.16;;;42.11;25.04
70952;BME280;69214;55.880;37.542;2023-08-06T04:13:59;99199.06;;;42.57;24.89
70952;BME280;69214;55.880;37.542;2023-08-06T04:16:25;99200.31;;;42.97;24.26
70952;BME280;69214;55.880;37.542;2023-08-06T04:18:52;99178.81;;;43.40;24.31
70952;BME280;69214;55.880;37.542;2023-08-06T04:21:19;99185.28;;;44.26;22.71
70952;BME280;69214;55.880;37.542;2023-08-06T04:23:46;99189.09;;;44.88;21.98
70952;BME280;69214;55.880;37.542;2023-08-06T04:26:13;99213.31;;;45.31;22.20
70952;BME280;69214;55.880;37.542;2023-08-06T04:28:39;99203.38;;;45.72;21.36
70952;BME280;69214;55.880;37.542;2023-08-06T04:31:05;99212.41;;;46.11;21.07
70952;BME280;69214;55.880;37.542;2023-08-06T04:33:33;99200.22;;;46.53;20.81
70952;BME280;69214;55.880;37.542;2023-08-06T04:36:03;99205.03;;;47.07;20.19
70952;BME280;69214;55.880;37.542;2023-08-06T04:38:29;99194.19;;;47.68;19.75
70952;BME280;69214;55.880;37.542;2023-08-06T04:40:55;99193.94;;;48.04;19.53
70952;BME280;69214;55.880;37.542;2023-08-06T04:43:22;99196.91;;;48.34;19.06
70952;BME280;69214;55.880;37.542;2023-08-06T04:45:50;99201.94;;;48.48;19.42
70952;BME280;69214;55.880;37.542;2023-08-06T04:48:17;99203.28;;;48.62;19.31
70952;BME280;69214;55.880;37.542;2023-08-06T04:50:47;99194.41;;;48.95;21.10
70952;BME280;69214;55.880;37.542;2023-08-06T04:53:14;99196.69;;;49.06;18.74
70952;BME280;69214;55.880;37.542;2023-08-06T04:55:40;99189.97;;;48.85;18.51
70952;BME280;69214;55.880;37.542;2023-08-06T04:58:05;99196.56;;;48.85;18.39
70952;BME280;69214;55.880;37.542;2023-08-06T05:00:31;99193.16;;;49.16;18.05
70952;BME280;69214;55.880;37.542;2023-08-06T05:02:59;99203.97;;;49.86;20.01
70952;BME280;69214;55.880;37.542;2023-08-06T05:05:25;99202.81;;;50.39;16.74
70952;BME280;69214;55.880;37.542;2023-08-06T05:07:53;99191.59;;;51.04;16.75
70952;BME280;69214;55.880;37.542;2023-08-06T05:10:19;99202.09;;;51.64;16.19
70952;BME280;69214;55.880;37.542;2023-08-06T05:12:45;99194.84;;;51.97;15.65
70952;BME280;69214;55.880;37.542;2023-08-06T05:15:11;99190.69;;;52.26;15.63
70952;BME280;69214;55.880;37.542;2023-08-06T05:17:37;99186.59;;;52.66;15.30
70952;BME280;69214;55.880;37.542;2023-08-06T05:20:03;99200.94;;;53.20;15.76
70952;BME280;69214;55.880;37.542;2023-08-06T05:22:29;99185.81;;;53.38;14.73
70952;BME280;69214;55.880;37.542;2023-08-06T05:24:55;99201.66;;;53.59;14.71
70952;BME280;69214;55.880;37.542;2023-08-06T05:27:21;99190.25;;;53.73;14.78
70952;BME280;69214;55.880;37.542;2023-08-06T05:29:47;99172.72;;;53.73;15.26
70952;BME280;69214;55.880;37.542;2023-08-06T05:32:14;99188.88;;;53.85;14.63
70952;BME280;69214;55.880;37.542;2023-08-06T05:34:39;99162.81;;;53.92;14.28
70952;BME280;69214;55.880;37.542;2023-08-06T05:37:07;99188.44;;;54.27;14.34
70952;BME280;69214;55.880;37.542;2023-08-06T05:39:33;99181.16;;;54.45;14.21
70952;BME280;69214;55.880;37.542;2023-08-06T05:41:59;99178.13;;;54.62;13.94
70952;BME280;69214;55.880;37.542;2023-08-06T05:44:25;99172.75;;;54.72;13.57
70952;BME280;69214;55.880;37.542;2023-08-06T05:46:51;99184.22;;;55.00;13.54
70952;BME280;69214;55.880;37.542;2023-08-06T05:49:19;99194.25;;;55.10;13.44
70952;BME280;69214;55.880;37.542;2023-08-06T05:51:44;99184.44;;;55.07;13.79
70952;BME280;69214;55.880;37.542;2023-08-06T05:54:10;99180.84;;;55.20;13.50
70952;BME280;69214;55.880;37.542;2023-08-06T05:56:36;99184.47;;;55.32;13.41
70952;BME280;69214;55.880;37.542;2023-08-06T05:59:02;99167.22;;;55.28;13.56
70952;BME280;69214;55.880;37.542;2023-08-06T06:01:27;99181.13;;;55.46;13.49
70952;BME280;69214;55.880;37.542;2023-08-06T06:03:53;99183.47;;;55.53;13.15
70952;BME280;69214;55.880;37.542;2023-08-06T06:06:19;99185.34;;;55.75;12.82
70952;BME280;69214;55.880;37.542;2023-08-06T06:08:45;99177.56;;;56.02;13.13
70952;BME280;69214;55.880;37.542;2023-08-06T06:11:11;99174.31;;;56.06;13.11
70952;BME280;69214;55.880;37.542;2023-08-06T06:13:37;99176.53;;;56.00;12.42
70952;BME280;69214;55.880;37.542;2023-08-06T06:16:03;99179.69;;;55.83;13.07
70952;BME280;69214;55.880;37.542;2023-08-06T06:18:38;99171.69;;;55.83;13.39
70952;BME280;69214;55.880;37.542;2023-08-06T06:21:03;99177.56;;;56.02;13.31
70952;BME280;69214;55.880;37.542;2023-08-06T06:23:30;99165.84;;;56.21;12.46
70952;BME280;69214;55.880;37.542;2023-08-06T06:25:55;99170.84;;;56.26;12.67
70952;BME280;69214;55.880;37.542;2023-08-06T06:28:24;99165.44;;;56.11;14.09
70952;BME280;69214;55.880;37.542;2023-08-06T06:30:51;99169.03;;;55.80;13.43
70952;BME280;69214;55.880;37.542;2023-08-06T06:33:17;99150.72;;;55.55;13.03
70952;BME280;69214;55.880;37.542;2023-08-06T06:35:43;99163.56;;;55.71;13.31
70952;BME280;69214;55.880;37.542;2023-08-06T06:38:08;99164.88;;;55.94;13.19
70952;BME280;69214;55.880;37.542;2023-08-06T06:40:34;99162.81;;;55.89;13.01
70952;BME280;69214;55.880;37.542;2023-08-06T06:43:00;99165.50;;;55.87;12.87
70952;BME280;69214;55.880;37.542;2023-08-06T06:45:26;99171.72;;;55.78;12.56
70952;BME280;69214;55.880;37.542;2023-08-06T06:47:52;99176.03;;;55.52;12.96
70952;BME280;69214;55.880;37.542;2023-08-06T06:50:17;99145.75;;;55.44;13.47
70952;BME280;69214;55.880;37.542;2023-08-06T06:52:43;99171.44;;;55.57;13.02
70952;BME280;69214;55.880;37.542;2023-08-06T06:55:09;99159.69;;;55.08;13.20
70952;BME280;69214;55.880;37.542;2023-08-06T06:57:35;99152.53;;;55.04;13.41
70952;BME280;69214;55.880;37.542;2023-08-06T07:00:01;99154.13;;;55.05;13.29
70952;BME280;69214;55.880;37.542;2023-08-06T07:02:27;99166.44;;;54.98;13.23
70952;BME280;69214;55.880;37.542;2023-08-06T07:04:52;99160.28;;;55.01;13.19
70952;BME280;69214;55.880;37.542;2023-08-06T07:07:18;99155.19;;;55.32;12.77
70952;BME280;69214;55.880;37.542;2023-08-06T07:09:44;99156.47;;;55.36;12.82
70952;BME280;69214;55.880;37.542;2023-08-06T07:12:10;99145.66;;;53.72;13.84
70952;BME280;69214;55.880;37.542;2023-08-06T07:14:36;99142.88;;;51.78;15.30
70952;BME280;69214;55.880;37.542;2023-08-06T07:17:02;99137.88;;;51.85;15.44
70952;BME280;69214;55.880;37.542;2023-08-06T07:19:27;99140.97;;;52.63;14.52
70952;BME280;69214;55.880;37.542;2023-08-06T07:21:53;99144.72;;;53.08;14.18
70952;BME280;69214;55.880;37.542;2023-08-06T07:24:21;99145.25;;;53.01;14.53
70952;BME280;69214;55.880;37.542;2023-08-06T07:26:47;99141.22;;;53.37;14.41
70952;BME280;69214;55.880;37.542;2023-08-06T07:29:14;99141.38;;;53.79;13.80
70952;BME280;69214;55.880;37.542;2023-08-06T07:31:45;99135.97;;;53.99;13.74
70952;BME280;69214;55.880;37.542;2023-08-06T07:34:11;99134.34;;;54.51;12.84
70952;BME280;69214;55.880;37.542;2023-08-06T07:36:37;99138.94;;;55.06;13.54
70952;BME280;69214;55.880;37.542;2023-08-06T07:39:03;99132.53;;;54.42;13.50
70952;BME280;69214;55.880;37.542;2023-08-06T07:41:31;99118.97;;;52.56;14.61
70952;BME280;69214;55.880;37.542;2023-08-06T07:43:57;99123.47;;;51.59;15.18
70952;BME280;69214;55.880;37.542;2023-08-06T07:46:23;99110.41;;;50.69;15.73
70952;BME280;69214;55.880;37.542;2023-08-06T07:48:49;99123.91;;;50.46;15.37
70952;BME280;69214;55.880;37.542;2023-08-06T07:51:15;99125.34;;;50.56;15.98
70952;BME280;69214;55.880;37.542;2023-08-06T07:53:41;99131.91;;;50.05;16.43
70952;BME280;69214;55.880;37.542;2023-08-06T07:56:06;99121.06;;;50.26;16.32
70952;BME280;69214;55.880;37.542;2023-08-06T07:58:32;99124.41;;;50.18;15.96
70952;BME280;69214;55.880;37.542;2023-08-06T08:00:58;99123.47;;;49.46;16.87
70952;BME280;69214;55.880;37.542;2023-08-06T08:03:24;99111.66;;;48.64;16.81
70952;BME280;69214;55.880;37.542;2023-08-06T08:05:54;99107.69;;;47.70;18.54
70952;BME280;69214;55.880;37.542;2023-08-06T08:08:23;99117.38;;;47.10;18.37
70952;BME280;69214;55.880;37.542;2023-08-06T08:10:49;99108.91;;;46.97;18.35
70952;BME280;69214;55.880;37.542;2023-08-06T08:13:15;99102.47;;;46.69;18.89
70952;BME280;69214;55.880;37.542;2023-08-06T08:15:40;99065.69;;;46.37;18.96
70952;BME280;69214;55.880;37.542;2023-08-06T08:18:07;99103.88;;;47.07;18.40
70952;BME280;69214;55.880;37.542;2023-08-06T08:20:33;99100.75;;;46.54;19.20
70952;BME280;69214;55.880;37.542;2023-08-06T08:23:01;99106.09;;;45.73;19.56
70952;BME280;69214;55.880;37.542;2023-08-06T08:25:28;99100.19;;;44.03;21.00
70952;BME280;69214;55.880;37.542;2023-08-06T08:27:54;99097.16;;;41.94;23.02
70952;BME280;69214;55.880;37.542;2023-08-06T08:30:21;99099.84;;;39.76;25.74
70952;BME280;69214;55.880;37.542;2023-08-06T08:32:47;99093.63;;;37.96;27.99
70952;BME280;69214;55.880;37.542;2023-08-06T08:35:13;99086.56;;;36.74;29.80
70952;BME280;69214;55.880;37.542;2023-08-06T08:37:42;99100.78;;;36.00;30.32
70952;BME280;69214;55.880;37.542;2023-08-06T08:40:09;99102.91;;;35.11;31.92
70952;BME280;69214;55.880;37.542;2023-08-06T08:42:36;99095.91;;;34.45;30.72
70952;BME280;69214;55.880;37.542;2023-08-06T08:45:04;99091.19;;;33.83;33.66
70952;BME280;69214;55.880;37.542;2023-08-06T08:47:31;99080.81;;;33.39;33.67
70952;BME280;69214;55.880;37.542;2023-08-06T08:49:57;99086.09;;;32.97;35.46
70952;BME280;69214;55.880;37.542;2023-08-06T08:52:24;99085.88;;;32.75;35.10
70952;BME280;69214;55.880;37.542;2023-08-06T08:54:51;99083.88;;;32.76;36.07
70952;BME280;69214;55.880;37.542;2023-08-06T08:57:19;99082.09;;;32.61;36.19
70952;BME280;69214;55.880;37.542;2023-08-06T08:59:44;99089.50;;;32.35;36.11
70952;BME280;69214;55.880;37.542;2023-08-06T09:02:12;99085.13;;;32.08;34.63
70952;BME280;69214;55.880;37.542;2023-08-06T09:04:40;99081.59;;;31.84;36.45
70952;BME280;69214;55.880;37.542;2023-08-06T09:07:08;99089.88;;;31.70;36.47
70952;BME280;69214;55.880;37.542;2023-08-06T09:09:36;99086.88;;;31.60;36.88
70952;BME280;69214;55.880;37.542;2023-08-06T09:12:11;99085.56;;;31.53;34.39
70952;BME280;69214;55.880;37.542;2023-08-06T09:14:38;99090.19;;;31.39;38.61
70952;BME280;69214;55.880;37.542;2023-08-06T09:17:04;99081.53;;;31.24;38.67
70952;BME280;69214;55.880;37.542;2023-08-06T09:19:31;99080.63;;;31.17;38.85
70952;BME280;69214;55.880;37.542;2023-08-06T09:21:58;99078.41;;;31.07;38.98
70952;BME280;69214;55.880;37.542;2023-08-06T09:24:25;99085.09;;;31.21;37.85
70952;BME280;69214;55.880;37.542;2023-08-06T09:26:52;99074.41;;;31.34;39.26
70952;BME280;69214;55.880;37.542;2023-08-06T09:29:18;99041.91;;;31.44;38.43
70952;BME280;69214;55.880;37.542;2023-08-06T09:31:47;99059.50;;;31.90;36.31
70952;BME280;69214;55.880;37.542;2023-08-06T09:34:17;99075.81;;;32.37;35.15
70952;BME280;69214;55.880;37.542;2023-08-06T09:36:46;99070.09;;;32.71;34.79
70952;BME280;69214;55.880;37.542;2023-08-06T09:39:17;99055.28;;;32.81;34.31
70952;BME280;69214;55.880;37.542;2023-08-06T09:41:44;99061.47;;;32.97;35.85
70952;BME280;69214;55.880;37.542;2023-08-06T09:44:18;99070.09;;;33.15;34.40
70952;BME280;69214;55.880;37.542;2023-08-06T09:46:49;99059.31;;;33.31;33.41
70952;BME280;69214;55.880;37.542;2023-08-06T09:49:19;99065.41;;;33.33;35.80
70952;BME280;69214;55.880;37.542;2023-08-06T09:51:46;99065.81;;;33.32;35.20
70952;BME280;69214;55.880;37.542;2023-08-06T09:54:17;99062.19;;;33.35;35.78
70952;BME280;69214;55.880;37.542;2023-08-06T09:56:45;99064.19;;;33.34;36.00
70952;BME280;69214;55.880;37.542;2023-08-06T09:59:11;99055.44;;;33.02;36.65
70952;BME280;69214;55.880;37.542;2023-08-06T10:01:37;99044.56;;;32.60;37.96
70952;BME280;69214;55.880;37.542;2023-08-06T10:04:05;99052.03;;;32.42;36.88
70952;BME280;69214;55.880;37.542;2023-08-06T10:06:34;99049.53;;;32.33;35.50
70952;BME280;69214;55.880;37.542;2023-08-06T10:09:02;99048.25;;;32.27;36.66
70952;BME280;69214;55.880;37.542;2023-08-06T10:11:29;99033.50;;;32.07;38.31
70952;BME280;69214;55.880;37.542;2023-08-06T10:14:02;99035.38;;;31.96;36.29
70952;BME280;69214;55.880;37.542;2023-08-06T10:16:29;99032.56;;;31.96;38.06
70952;BME280;69214;55.880;37.542;2023-08-06T10:18:57;99038.97;;;31.93;38.55
70952;BME280;69214;55.880;37.542;2023-08-06T10:21:26;99024.44;;;31.91;36.79
70952;BME280;69214;55.880;37.542;2023-08-06T10:23:54;99022.88;;;31.97;38.50
70952;BME280;69214;55.880;37.542;2023-08-06T10:26:20;99012.31;;;31.91;38.40
70952;BME280;69214;55.880;37.542;2023-08-06T10:28:46;99007.84;;;31.86;38.83
70952;BME280;69214;55.880;37.542;2023-08-06T10:31:12;99033.28;;;31.89;37.93
70952;BME280;69214;55.880;37.542;2023-08-06T10:33:45;99019.50;;;31.84;36.56
70952;BME280;69214;55.880;37.542;2023-08-06T10:36:12;99015.78;;;31.77;37.61
70952;BME280;69214;55.880;37.542;2023-08-06T10:38:49;99003.63;;;31.73;36.13
70952;BME280;69214;55.880;37.542;2023-08-06T10:41:27;99026.91;;;31.96;36.56
70952;BME280;69214;55.880;37.542;2023-08-06T10:44:06;99018.53;;;32.03;36.15
70952;BME280;69214;55.880;37.542;2023-08-06T10:46:36;99011.16;;;31.95;38.36
70952;BME280;69214;55.880;37.542;2023-08-06T10:49:03;99003.34;;;31.81;37.22
70952;BME280;69214;55.880;37.542;2023-08-06T10:51:29;99009.38;;;31.80;38.73
70952;BME280;69214;55.880;37.542;2023-08-06T10:53:55;99016.97;;;31.76;37.93
70952;BME280;69214;55.880;37.542;2023-08-06T10:56:25;99005.75;;;31.79;38.05
70952;BME280;69214;55.880;37.542;2023-08-06T10:58:54;99004.72;;;31.95;37.15
70952;BME280;69214;55.880;37.542;2023-08-06T11:01:23;99007.88;;;32.23;37.57
70952;BME280;69214;55.880;37.542;2023-08-06T11:03:50;99008.09;;;32.44;37.93
70952;BME280;69214;55.880;37.542;2023-08-06T11:06:17;99004.06;;;32.45;37.45
70952;BME280;69214;55.880;37.542;2023-08-06T11:08:51;98996.81;;;32.48;36.71
70952;BME280;69214;55.880;37.542;2023-08-06T11:11:17;99007.69;;;32.46;37.33
70952;BME280;69214;55.880;37.542;2023-08-06T11:13:45;98995.44;;;32.31;37.75
70952;BME280;69214;55.880;37.542;2023-08-06T11:16:14;99012.88;;;32.40;37.43
70952;BME280;69214;55.880;37.542;2023-08-06T11:18:40;99010.19;;;32.55;37.57
70952;BME280;69214;55.880;37.542;2023-08-06T11:21:08;99000.25;;;32.71;37.66
70952;BME280;69214;55.880;37.542;2023-08-06T11:23:35;99007.66;;;32.87;37.55
70952;BME280;69214;55.880;37.542;2023-08-06T11:26:01;98991.78;;;32.71;37.49
70952;BME280;69214;55.880;37.542;2023-08-06T11:28:28;98998.88;;;32.51;38.18
70952;BME280;69214;55.880;37.542;2023-08-06T11:30:55;98994.25;;;32.32;38.20
70952;BME280;69214;55.880;37.542;2023-08-06T11:33:23;98997.44;;;32.27;37.81
70952;BME280;69214;55.880;37.542;2023-08-06T11:35:55;99002.66;;;32.25;36.95
70952;BME280;69214;55.880;37.542;2023-08-06T11:38:25;98994.78;;;32.08;37.73
70952;BME280;69214;55.880;37.542;2023-08-06T11:40:51;98992.56;;;31.91;39.36
70952;BME280;69214;55.880;37.542;2023-08-06T11:43:19;98992.09;;;31.85;39.04
70952;BME280;69214;55.880;37.542;2023-08-06T11:45:46;98975.59;;;31.87;39.79
70952;BME280;69214;55.880;37.542;2023-08-06T11:48:12;98983.31;;;31.94;39.56
70952;BME280;69214;55.880;37.542;2023-08-06T11:50:38;98988.06;;;31.86;39.03
70952;BME280;69214;55.880;37.542;2023-08-06T11:53:05;98983.19;;;31.83;39.81
70952;BME280;69214;55.880;37.542;2023-08-06T11:55:31;98975.13;;;31.81;39.61
70952;BME280;69214;55.880;37.542;2023-08-06T11:57:57;98973.88;;;31.79;39.92
70952;BME280;69214;55.880;37.542;2023-08-06T12:00:26;98985.97;;;31.79;38.55
70952;BME280;69214;55.880;37.542;2023-08-06T12:02:52;98979.06;;;31.73;39.16
70952;BME280;69214;55.880;37.542;2023-08-06T12:05:21;98966.72;;;31.55;39.39
70952;BME280;69214;55.880;37.542;2023-08-06T12:07:55;98960.81;;;31.67;39.40
70952;BME280;69214;55.880;37.542;2023-08-06T12:10:23;98968.59;;;31.74;39.18
70952;BME280;69214;55.880;37.542;2023-08-06T12:12:50;98970.25;;;31.78;39.10
70952;BME280;69214;55.880;37.542;2023-08-06T12:15:16;98969.53;;;31.85;38.85
70952;BME280;69214;55.880;37.542;2023-08-06T12:17:42;98961.81;;;31.82;39.71
70952;BME280;69214;55.880;37.542;2023-08-06T12:20:08;98958.63;;;31.83;39.65
70952;BME280;69214;55.880;37.542;2023-08-06T12:22:36;98956.66;;;31.87;39.28
70952;BME280;69214;55.880;37.542;2023-08-06T12:25:06;98967.53;;;31.89;39.18
70952;BME280;69214;55.880;37.542;2023-08-06T12:27:38;98952.72;;;31.66;38.99
70952;BME280;69214;55.880;37.542;2023-08-06T12:30:04;98955.19;;;31.37;40.11
70952;BME280;69214;55.880;37.542;2023-08-06T12:32:35;98946.88;;;31.14;41.19
70952;BME280;69214;55.880;37.542;2023-08-06T12:35:01;98961.97;;;31.03;41.54
70952;BME280;69214;55.880;37.542;2023-08-06T12:37:31;98956.28;;;30.99;41.91
70952;BME280;69214;55.880;37.542;2023-08-06T12:39:57;98932.59;;;31.04;41.35
70952;BME280;69214;55.880;37.542;2023-08-06T12:42:23;98950.03;;;31.13;41.23
70952;BME280;69214;55.880;37.542;2023-08-06T12:44:50;98938.66;;;31.06;41.15
70952;BME280;69214;55.880;37.542;2023-08-06T12:47:18;98966.81;;;31.02;41.11
70952;BME280;69214;55.880;37.542;2023-08-06T12:49:45;98952.59;;;30.95;41.94
70952;BME280;69214;55.880;37.542;2023-08-06T12:52:12;98958.63;;;30.93;41.71
70952;BME280;69214;55.880;37.542;2023-08-06T12:54:41;98954.59;;;30.95;41.95
70952;BME280;69214;55.880;37.542;2023-08-06T12:57:07;98933.69;;;30.96;42.07